sensor_id;sensor_type;location;lat;lon;timestamp;pressure;altitude;pressure_sealevel;temperature;humidity
35655;BME280;21773;50.010;19.972;2023-04-02T00:02:30;97665.47;;;14.98;61.52
35655;BME280;21773;50.010;19.972;2023-04-02T00:05:42;97645.72;;;14.83;61.51
35655;BME280;21773;50.010;19.972;2023-04-02T00:08:57;97659.47;;;14.96;61.48
35655;BME280;21773;50.010;19.972;2023-04-02T00:12:12;97657.88;;;14.95;61.47
35655;BME280;21773;50.010;19.972;2023-04-02T00:15:19;97661.13;;;14.92;61.46
35655;BME280;21773;50.010;19.972;2023-04-02T00:18:23;97652.75;;;14.89;61.44
35655;BME280;21773;50.010;19.972;2023-04-02T00:21:28;97662.50;;;14.95;61.55
35655;BME280;21773;50.010;19.972;2023-04-02T00:24:33;97665.22;;;14.95;61.64
35655;BME280;21773;50.010;19.972;2023-04-02T00:27:37;97665.75;;;14.92;61.54
35655;BME280;21773;50.010;19.972;2023-04-02T00:30:47;97670.09;;;14.93;61.70
35655;BME280;21773;50.010;19.972;2023-04-02T00:33:52;97669.28;;;14.92;61.64
35655;BME280;21773;50.010;19.972;2023-04-02T00:36:57;97673.91;;;14.92;61.70
35655;BME280;21773;50.010;19.972;2023-04-02T00:40:02;97667.66;;;14.91;61.62
35655;BME280;21773;50.010;19.972;2023-04-02T00:43:08;97666.59;;;14.87;61.72
35655;BME280;21773;50.010;19.972;2023-04-02T00:46:21;97677.41;;;14.92;61.68
35655;BME280;21773;50.010;19.972;2023-04-02T00:49:31;97671.19;;;14.92;61.73
35655;BME280;21773;50.010;19.972;2023-04-02T00:52:38;97677.41;;;14.92;61.87
35655;BME280;21773;50.010;19.972;2023-04-02T00:55:43;97679.88;;;14.94;61.82
35655;BME280;21773;50.010;19.972;2023-04-02T00:58:51;97689.09;;;14.93;61.67
35655;BME280;21773;50.010;19.972;2023-04-02T01:02:18;97684.47;;;14.93;61.66
35655;BME280;21773;50.010;19.972;2023-04-02T01:05:23;97691.78;;;14.98;61.57
35655;BME280;21773;50.010;19.972;2023-04-02T01:08:36;97697.19;;;15.03;61.64
35655;BME280;21773;50.010;19.972;2023-04-02T01:11:55;97697.72;;;15.05;61.67
35655;BME280;21773;50.010;19.972;2023-04-02T01:15:10;97699.88;;;15.08;61.39
35655;BME280;21773;50.010;19.972;2023-04-02T01:18:25;97704.22;;;15.09;61.24
35655;BME280;21773;50.010;19.972;2023-04-02T01:21:44;97705.88;;;15.05;61.24
35655;BME280;21773;50.010;19.972;2023-04-02T01:24:55;97704.50;;;15.07;60.72
35655;BME280;21773;50.010;19.972;2023-04-02T01:28:05;97703.16;;;15.05;60.67
35655;BME280;21773;50.010;19.972;2023-04-02T01:31:14;97693.44;;;14.94;60.85
35655;BME280;21773;50.010;19.972;2023-04-02T01:34:21;97712.38;;;15.04;60.85
35655;BME280;21773;50.010;19.972;2023-04-02T01:37:35;97711.03;;;15.01;60.62
35655;BME280;21773;50.010;19.972;2023-04-02T01:40:46;97714.31;;;14.98;60.26
35655;BME280;21773;50.010;19.972;2023-04-02T01:43:57;97698.34;;;14.87;60.49
35655;BME280;21773;50.010;19.972;2023-04-02T01:47:10;97706.16;;;14.98;60.28
35655;BME280;21773;50.010;19.972;2023-04-02T01:50:23;97711.31;;;15.00;60.14
35655;BME280;21773;50.010;19.972;2023-04-02T01:53:29;97711.59;;;14.98;60.01
35655;BME280;21773;50.010;19.972;2023-04-02T01:56:33;97714.56;;;14.97;59.87
35655;BME280;21773;50.010;19.972;2023-04-02T01:59:37;97717.03;;;14.98;59.87
35655;BME280;21773;50.010;19.972;2023-04-02T02:02:46;97721.63;;;14.98;59.78
35655;BME280;21773;50.010;19.972;2023-04-02T02:05:51;97720.56;;;14.99;59.59
35655;BME280;21773;50.010;19.972;2023-04-02T02:08:59;97722.44;;;14.98;59.46
35655;BME280;21773;50.010;19.972;2023-04-02T02:12:06;97726.78;;;14.99;59.63
35655;BME280;21773;50.010;19.972;2023-04-02T02:15:14;97732.22;;;14.99;59.58
35655;BME280;21773;50.010;19.972;2023-04-02T02:18:20;97731.94;;;14.96;59.58
35655;BME280;21773;50.010;19.972;2023-04-02T02:21:32;97733.56;;;14.97;59.63
35655;BME280;21773;50.010;19.972;2023-04-02T02:24:40;97741.72;;;14.97;59.24
35655;BME280;21773;50.010;19.972;2023-04-02T02:28:02;97737.09;;;14.97;59.27
35655;BME280;21773;50.010;19.972;2023-04-02T02:31:15;97731.44;;;14.89;59.25
35655;BME280;21773;50.010;19.972;2023-04-02T02:34:31;97737.13;;;14.92;58.99
35655;BME280;21773;50.010;19.972;2023-04-02T02:37:39;97740.66;;;14.93;58.89
35655;BME280;21773;50.010;19.972;2023-04-02T02:40:50;97746.09;;;14.88;58.48
35655;BME280;21773;50.010;19.972;2023-04-02T02:43:59;97742.56;;;14.87;58.68
35655;BME280;21773;50.010;19.972;2023-04-02T02:47:09;97746.38;;;14.86;57.60
35655;BME280;21773;50.010;19.972;2023-04-02T02:50:19;97743.97;;;14.80;57.15
35655;BME280;21773;50.010;19.972;2023-04-02T02:53:25;97739.09;;;14.71;57.18
35655;BME280;21773;50.010;19.972;2023-04-02T02:56:30;97755.09;;;14.73;57.20
35655;BME280;21773;50.010;19.972;2023-04-02T02:59:36;97762.97;;;14.69;57.18
35655;BME280;21773;50.010;19.972;2023-04-02T03:02:41;97766.22;;;14.71;57.43
35655;BME280;21773;50.010;19.972;2023-04-02T03:05:52;97767.31;;;14.70;57.75
35655;BME280;21773;50.010;19.972;2023-04-02T03:09:02;97770.28;;;14.74;57.86
35655;BME280;21773;50.010;19.972;2023-04-02T03:12:30;97773.00;;;14.74;57.70
35655;BME280;21773;50.010;19.972;2023-04-02T03:15:42;97760.53;;;14.63;57.73
35655;BME280;21773;50.010;19.972;2023-04-02T03:18:55;97764.63;;;14.60;57.53
35655;BME280;21773;50.010;19.972;2023-04-02T03:38:55;97784.44;;;14.30;58.17
35655;BME280;21773;50.010;19.972;2023-04-02T03:42:06;97785.78;;;14.28;58.42
35655;BME280;21773;50.010;19.972;2023-04-02T03:45:15;97785.78;;;14.28;58.62
35655;BME280;21773;50.010;19.972;2023-04-02T03:48:24;97794.22;;;14.26;58.52
35655;BME280;21773;50.010;19.972;2023-04-02T03:51:33;97802.34;;;14.31;58.28
35655;BME280;21773;50.010;19.972;2023-04-02T03:54:41;97800.97;;;14.29;58.44
35655;BME280;21773;50.010;19.972;2023-04-02T03:58:00;97799.63;;;14.21;58.64
35655;BME280;21773;50.010;19.972;2023-04-02T04:01:15;97817.22;;;14.24;58.47
35655;BME280;21773;50.010;19.972;2023-04-02T04:04:22;97818.59;;;14.26;58.01
35655;BME280;21773;50.010;19.972;2023-04-02T04:07:30;97811.56;;;14.30;57.83
35655;BME280;21773;50.010;19.972;2023-04-02T04:10:36;97808.84;;;14.36;57.56
35655;BME280;21773;50.010;19.972;2023-04-02T04:13:43;97799.63;;;14.31;57.74
35655;BME280;21773;50.010;19.972;2023-04-02T04:16:55;97812.91;;;14.38;57.59
35655;BME280;21773;50.010;19.972;2023-04-02T04:20:08;97813.44;;;14.35;57.53
35655;BME280;21773;50.010;19.972;2023-04-02T04:23:18;97821.31;;;14.31;57.48
35655;BME280;21773;50.010;19.972;2023-04-02T04:26:35;97831.38;;;14.36;57.69
35655;BME280;21773;50.010;19.972;2023-04-02T04:29:48;97821.03;;;14.28;57.31
35655;BME280;21773;50.010;19.972;2023-04-02T04:32:56;97837.88;;;14.40;57.48
35655;BME280;21773;50.010;19.972;2023-04-02T04:36:03;97835.44;;;14.44;57.16
35655;BME280;21773;50.010;19.972;2023-04-02T04:39:13;97841.41;;;14.41;56.84
35655;BME280;21773;50.010;19.972;2023-04-02T04:42:26;97845.19;;;14.40;56.96
35655;BME280;21773;50.010;19.972;2023-04-02T04:45:38;97844.34;;;14.34;57.03
35655;BME280;21773;50.010;19.972;2023-04-02T04:48:49;97845.97;;;14.35;57.12
35655;BME280;21773;50.010;19.972;2023-04-02T04:51:59;97854.94;;;14.36;57.02
35655;BME280;21773;50.010;19.972;2023-04-02T04:55:20;97857.63;;;14.36;57.01
35655;BME280;21773;50.010;19.972;2023-04-02T04:58:32;97833.22;;;14.20;57.18
35655;BME280;21773;50.010;19.972;2023-04-02T05:01:40;97866.84;;;14.35;56.90
35655;BME280;21773;50.010;19.972;2023-04-02T05:04:49;97868.50;;;14.36;57.01
35655;BME280;21773;50.010;19.972;2023-04-02T05:07:58;97876.31;;;14.27;57.21
35655;BME280;21773;50.010;19.972;2023-04-02T05:11:06;97876.06;;;14.33;57.24
35655;BME280;21773;50.010;19.972;2023-04-02T05:14:21;97884.19;;;14.33;57.36
35655;BME280;21773;50.010;19.972;2023-04-02T05:17:31;97887.47;;;14.30;57.31
35655;BME280;21773;50.010;19.972;2023-04-02T05:20:42;97889.88;;;14.27;57.49
35655;BME280;21773;50.010;19.972;2023-04-02T05:23:53;97892.06;;;14.25;57.44
35655;BME280;21773;50.010;19.972;2023-04-02T05:27:01;97896.94;;;14.28;57.86
35655;BME280;21773;50.010;19.972;2023-04-02T05:30:27;97898.81;;;14.22;57.22
35655;BME280;21773;50.010;19.972;2023-04-02T05:33:35;97892.28;;;14.03;57.12
35655;BME280;21773;50.010;19.972;2023-04-02T05:36:44;97890.97;;;14.11;57.16
35655;BME280;21773;50.010;19.972;2023-04-02T05:39:52;97900.44;;;14.13;57.05
35655;BME280;21773;50.010;19.972;2023-04-02T05:42:58;97904.22;;;14.17;56.87
35655;BME280;21773;50.010;19.972;2023-04-02T05:46:14;97906.16;;;14.17;57.07
35655;BME280;21773;50.010;19.972;2023-04-02T05:49:25;97903.97;;;14.14;57.22
35655;BME280;21773;50.010;19.972;2023-04-02T05:52:36;97903.69;;;14.15;57.48
35655;BME280;21773;50.010;19.972;2023-04-02T05:55:50;97906.16;;;14.17;57.74
35655;BME280;21773;50.010;19.972;2023-04-02T05:59:01;97909.91;;;14.06;58.12
35655;BME280;21773;50.010;19.972;2023-04-02T06:02:19;97912.63;;;14.01;58.18
35655;BME280;21773;50.010;19.972;2023-04-02T06:05:27;97901.78;;;14.01;58.32
35655;BME280;21773;50.010;19.972;2023-04-02T06:08:40;97915.34;;;14.11;58.23
35655;BME280;21773;50.010;19.972;2023-04-02T06:11:49;97916.69;;;14.08;58.32
35655;BME280;21773;50.010;19.972;2023-04-02T06:14:54;97929.41;;;14.03;58.39
35655;BME280;21773;50.010;19.972;2023-04-02T06:18:06;97918.84;;;14.01;58.48
35655;BME280;21773;50.010;19.972;2023-04-02T06:21:15;97929.97;;;14.10;58.64
35655;BME280;21773;50.010;19.972;2023-04-02T06:24:25;97930.53;;;14.12;58.74
35655;BME280;21773;50.010;19.972;2023-04-02T06:27:31;97931.88;;;14.09;58.28
35655;BME280;21773;50.010;19.972;2023-04-02T06:30:38;97940.00;;;14.09;58.77
35655;BME280;21773;50.010;19.972;2023-04-02T06:33:46;97941.09;;;14.13;58.25
35655;BME280;21773;50.010;19.972;2023-04-02T06:36:57;97942.44;;;14.11;58.32
35655;BME280;21773;50.010;19.972;2023-04-02T06:40:06;97951.94;;;14.18;58.46
35655;BME280;21773;50.010;19.972;2023-04-02T06:43:26;97955.22;;;14.20;58.50
35655;BME280;21773;50.010;19.972;2023-04-02T06:47:09;97957.13;;;14.30;58.91
35655;BME280;21773;50.010;19.972;2023-04-02T06:50:22;97955.22;;;14.25;58.82
35655;BME280;21773;50.010;19.972;2023-04-02T06:53:32;97963.91;;;14.32;58.67
35655;BME280;21773;50.010;19.972;2023-04-02T06:56:41;97959.03;;;14.35;58.75
35655;BME280;21773;50.010;19.972;2023-04-02T06:59:48;97963.94;;;14.43;58.58
35655;BME280;21773;50.010;19.972;2023-04-02T07:02:56;97968.06;;;14.50;58.58
35655;BME280;21773;50.010;19.972;2023-04-02T07:06:03;97972.66;;;14.50;58.98
35655;BME280;21773;50.010;19.972;2023-04-02T07:09:08;97976.72;;;14.62;59.27
35655;BME280;21773;50.010;19.972;2023-04-02T07:12:19;97969.97;;;14.70;59.03
35655;BME280;21773;50.010;19.972;2023-04-02T07:15:25;97971.59;;;14.66;58.62
35655;BME280;21773;50.010;19.972;2023-04-02T07:18:31;97974.84;;;14.83;58.73
35655;BME280;21773;50.010;19.972;2023-04-02T07:21:39;97980.03;;;15.05;57.15
35655;BME280;21773;50.010;19.972;2023-04-02T07:24:43;97969.94;;;15.05;55.79
35655;BME280;21773;50.010;19.972;2023-04-02T07:27:47;97985.16;;;15.22;55.94
35655;BME280;21773;50.010;19.972;2023-04-02T07:30:51;97994.38;;;15.05;55.96
35655;BME280;21773;50.010;19.972;2023-04-02T07:33:57;97999.00;;;14.95;55.65
35655;BME280;21773;50.010;19.972;2023-04-02T07:37:02;97989.22;;;14.79;56.63
35655;BME280;21773;50.010;19.972;2023-04-02T07:40:14;98001.44;;;14.91;56.75
35655;BME280;21773;50.010;19.972;2023-04-02T07:43:17;98012.59;;;14.90;56.79
35655;BME280;21773;50.010;19.972;2023-04-02T07:46:21;98010.66;;;14.65;55.70
35655;BME280;21773;50.010;19.972;2023-04-02T07:49:24;98014.94;;;14.41;57.15
35655;BME280;21773;50.010;19.972;2023-04-02T07:52:29;98014.31;;;14.28;57.44
35655;BME280;21773;50.010;19.972;2023-04-02T07:55:33;98025.16;;;14.23;57.60
35655;BME280;21773;50.010;19.972;2023-04-02T07:58:37;98022.19;;;14.30;57.49
35655;BME280;21773;50.010;19.972;2023-04-02T08:01:40;98032.81;;;14.42;57.13
35655;BME280;21773;50.010;19.972;2023-04-02T08:04:45;98033.13;;;14.45;56.79
35655;BME280;21773;50.010;19.972;2023-04-02T08:07:53;98036.66;;;14.46;56.44
35655;BME280;21773;50.010;19.972;2023-04-02T08:11:01;98038.56;;;14.55;56.23
35655;BME280;21773;50.010;19.972;2023-04-02T08:14:04;98034.47;;;14.48;56.19
35655;BME280;21773;50.010;19.972;2023-04-02T08:17:08;98050.25;;;14.61;55.89
35655;BME280;21773;50.010;19.972;2023-04-02T08:20:14;98055.94;;;14.59;55.58
35655;BME280;21773;50.010;19.972;2023-04-02T08:23:20;98067.31;;;14.61;56.08
35655;BME280;21773;50.010;19.972;2023-04-02T08:26:23;98063.00;;;14.60;55.80
35655;BME280;21773;50.010;19.972;2023-04-02T08:29:27;98068.44;;;14.65;54.62
35655;BME280;21773;50.010;19.972;2023-04-02T08:32:33;98077.38;;;14.71;54.75
35655;BME280;21773;50.010;19.972;2023-04-02T08:35:36;98083.09;;;14.74;54.49
35655;BME280;21773;50.010;19.972;2023-04-02T08:38:42;98089.06;;;14.77;54.87
35655;BME280;21773;50.010;19.972;2023-04-02T08:41:51;98090.97;;;14.76;55.33
35655;BME280;21773;50.010;19.972;2023-04-02T08:45:04;98112.69;;;14.81;55.52
35655;BME280;21773;50.010;19.972;2023-04-02T08:48:26;98119.72;;;14.77;55.48
35655;BME280;21773;50.010;19.972;2023-04-02T08:51:35;98133.78;;;14.59;54.05
35655;BME280;21773;50.010;19.972;2023-04-02T08:54:40;98124.91;;;14.16;54.36
35655;BME280;21773;50.010;19.972;2023-04-02T08:57:48;98131.69;;;13.77;54.03
35655;BME280;21773;50.010;19.972;2023-04-02T09:00:57;98141.19;;;13.42;55.08
35655;BME280;21773;50.010;19.972;2023-04-02T09:04:08;98146.03;;;13.40;55.53
35655;BME280;21773;50.010;19.972;2023-04-02T09:07:16;98155.06;;;13.24;55.83
35655;BME280;21773;50.010;19.972;2023-04-02T09:10:25;98156.75;;;13.03;55.85
35655;BME280;21773;50.010;19.972;2023-04-02T09:13:36;98171.81;;;12.94;55.88
35655;BME280;21773;50.010;19.972;2023-04-02T09:16:45;98169.06;;;12.89;56.24
35655;BME280;21773;50.010;19.972;2023-04-02T09:19:54;98177.94;;;12.85;56.72
35655;BME280;21773;50.010;19.972;2023-04-02T09:22:58;98188.81;;;12.90;56.37
35655;BME280;21773;50.010;19.972;2023-04-02T09:26:19;98193.63;;;12.88;56.61
35655;BME280;21773;50.010;19.972;2023-04-02T09:29:45;98194.09;;;12.80;56.59
35655;BME280;21773;50.010;19.972;2023-04-02T09:32:50;98202.34;;;12.90;55.97
35655;BME280;21773;50.010;19.972;2023-04-02T09:35:56;98210.50;;;12.95;55.61
35655;BME280;21773;50.010;19.972;2023-04-02T09:39:02;98217.88;;;12.99;55.49
35655;BME280;21773;50.010;19.972;2023-04-02T09:42:28;98220.09;;;13.08;55.61
35655;BME280;21773;50.010;19.972;2023-04-02T09:45:31;98232.72;;;13.19;54.86
35655;BME280;21773;50.010;19.972;2023-04-02T09:48:37;98228.78;;;13.10;54.85
35655;BME280;21773;50.010;19.972;2023-04-02T09:51:44;98241.13;;;13.00;55.14
35655;BME280;21773;50.010;19.972;2023-04-02T09:55:15;98247.03;;;12.97;55.33
35655;BME280;21773;50.010;19.972;2023-04-02T09:58:20;98248.81;;;12.87;55.06
35655;BME280;21773;50.010;19.972;2023-04-02T10:01:29;98249.94;;;12.69;55.23
35655;BME280;21773;50.010;19.972;2023-04-02T10:04:35;98244.41;;;12.59;55.49
35655;BME280;21773;50.010;19.972;2023-04-02T10:07:41;98264.47;;;12.46;55.50
35655;BME280;21773;50.010;19.972;2023-04-02T10:10:47;98268.28;;;12.45;55.92
35655;BME280;21773;50.010;19.972;2023-04-02T10:13:56;98288.50;;;12.43;55.87
35655;BME280;21773;50.010;19.972;2023-04-02T10:17:06;98289.50;;;12.37;56.01
35655;BME280;21773;50.010;19.972;2023-04-02T10:20:22;98298.34;;;12.32;56.60
35655;BME280;21773;50.010;19.972;2023-04-02T10:23:29;98306.28;;;12.22;57.06
35655;BME280;21773;50.010;19.972;2023-04-02T10:26:42;98308.00;;;12.28;57.28
35655;BME280;21773;50.010;19.972;2023-04-02T10:30:00;98310.47;;;12.30;56.84
35655;BME280;21773;50.010;19.972;2023-04-02T10:33:16;98319.22;;;12.37;57.31
35655;BME280;21773;50.010;19.972;2023-04-02T10:36:39;98315.22;;;12.39;56.54
35655;BME280;21773;50.010;19.972;2023-04-02T10:39:48;98329.28;;;12.58;56.41
35655;BME280;21773;50.010;19.972;2023-04-02T10:43:08;98338.88;;;12.66;56.62
35655;BME280;21773;50.010;19.972;2023-04-02T10:46:21;98342.53;;;12.76;56.20
35655;BME280;21773;50.010;19.972;2023-04-02T10:49:32;98344.31;;;12.87;55.82
35655;BME280;21773;50.010;19.972;2023-04-02T10:52:45;98361.88;;;12.85;55.04
35655;BME280;21773;50.010;19.972;2023-04-02T10:55:54;98356.38;;;12.80;54.60
35655;BME280;21773;50.010;19.972;2023-04-02T10:59:02;98348.59;;;12.67;54.20
35655;BME280;21773;50.010;19.972;2023-04-02T11:02:23;98361.22;;;12.78;54.55
35655;BME280;21773;50.010;19.972;2023-04-02T11:05:32;98370.97;;;12.79;54.53
35655;BME280;21773;50.010;19.972;2023-04-02T11:08:40;98376.16;;;12.80;53.40
35655;BME280;21773;50.010;19.972;2023-04-02T11:11:48;98385.72;;;12.88;53.67
35655;BME280;21773;50.010;19.972;2023-04-02T11:14:53;98389.06;;;12.95;53.29
35655;BME280;21773;50.010;19.972;2023-04-02T11:17:59;98390.97;;;12.94;52.94
35655;BME280;21773;50.010;19.972;2023-04-02T11:21:04;98395.34;;;13.00;52.59
35655;BME280;21773;50.010;19.972;2023-04-02T11:24:23;98388.59;;;13.20;53.33
35655;BME280;21773;50.010;19.972;2023-04-02T11:27:28;98401.47;;;13.29;53.10
35655;BME280;21773;50.010;19.972;2023-04-02T11:30:33;98412.22;;;13.24;52.79
35655;BME280;21773;50.010;19.972;2023-04-02T11:33:39;98413.16;;;13.13;52.07
35655;BME280;21773;50.010;19.972;2023-04-02T11:37:02;98419.72;;;13.00;52.21
35655;BME280;21773;50.010;19.972;2023-04-02T11:40:43;98428.34;;;12.81;52.25
35655;BME280;21773;50.010;19.972;2023-04-02T11:43:51;98426.66;;;12.75;52.77
35655;BME280;21773;50.010;19.972;2023-04-02T11:47:15;98438.94;;;12.66;52.31
35655;BME280;21773;50.010;19.972;2023-04-02T11:50:32;98433.59;;;12.54;51.88
35655;BME280;21773;50.010;19.972;2023-04-02T11:53:41;98445.97;;;12.50;51.92
35655;BME280;21773;50.010;19.972;2023-04-02T11:56:46;98444.75;;;12.41;51.48
35655;BME280;21773;50.010;19.972;2023-04-02T12:00:05;98448.50;;;12.40;52.25
35655;BME280;21773;50.010;19.972;2023-04-02T12:03:31;98447.59;;;12.34;52.44
35655;BME280;21773;50.010;19.972;2023-04-02T12:06:50;98451.28;;;12.45;52.55
35655;BME280;21773;50.010;19.972;2023-04-02T12:09:58;98457.03;;;12.48;52.39
35655;BME280;21773;50.010;19.972;2023-04-02T12:13:02;98403.16;;;12.13;51.88
35655;BME280;21773;50.010;19.972;2023-04-02T12:16:06;98459.50;;;12.50;52.42
35655;BME280;21773;50.010;19.972;2023-04-02T12:19:15;98461.94;;;12.51;52.03
35655;BME280;21773;50.010;19.972;2023-04-02T12:22:22;98468.25;;;12.57;52.38
35655;BME280;21773;50.010;19.972;2023-04-02T12:25:29;98466.44;;;12.63;53.00
35655;BME280;21773;50.010;19.972;2023-04-02T12:28:34;98468.50;;;12.55;52.75
35655;BME280;21773;50.010;19.972;2023-04-02T12:31:42;98473.75;;;12.62;52.97
35655;BME280;21773;50.010;19.972;2023-04-02T12:34:45;98470.56;;;12.65;52.41
35655;BME280;21773;50.010;19.972;2023-04-02T12:37:52;98461.88;;;12.63;52.66
35655;BME280;21773;50.010;19.972;2023-04-02T12:40:57;98479.31;;;12.72;53.09
35655;BME280;21773;50.010;19.972;2023-04-02T12:44:02;98474.34;;;12.64;52.62
35655;BME280;21773;50.010;19.972;2023-04-02T12:47:06;98482.03;;;12.55;53.59
35655;BME280;21773;50.010;19.972;2023-04-02T12:50:13;98477.91;;;12.53;53.92
35655;BME280;21773;50.010;19.972;2023-04-02T12:53:21;98481.34;;;12.48;52.83
35655;BME280;21773;50.010;19.972;2023-04-02T12:56:25;98483.41;;;12.58;52.76
35655;BME280;21773;50.010;19.972;2023-04-02T12:59:30;98485.63;;;12.61;53.21
35655;BME280;21773;50.010;19.972;2023-04-02T13:02:43;98491.03;;;12.61;52.77
35655;BME280;21773;50.010;19.972;2023-04-02T13:05:50;98497.75;;;12.58;52.78
35655;BME280;21773;50.010;19.972;2023-04-02T13:08:56;98499.78;;;12.51;53.00
35655;BME280;21773;50.010;19.972;2023-04-02T13:12:01;98501.34;;;12.47;52.63
35655;BME280;21773;50.010;19.972;2023-04-02T13:15:07;98497.81;;;12.47;53.63
35655;BME280;21773;50.010;19.972;2023-04-02T13:18:19;98511.81;;;12.44;53.57
35655;BME280;21773;50.010;19.972;2023-04-02T13:21:24;98499.59;;;12.41;53.88
35655;BME280;21773;50.010;19.972;2023-04-02T13:24:31;98513.63;;;12.38;54.29
35655;BME280;21773;50.010;19.972;2023-04-02T13:27:35;98515.75;;;12.36;54.37
35655;BME280;21773;50.010;19.972;2023-04-02T13:30:38;98519.75;;;12.34;55.03
35655;BME280;21773;50.010;19.972;2023-04-02T13:33:41;98517.03;;;12.34;54.39
35655;BME280;21773;50.010;19.972;2023-04-02T13:36:45;98521.75;;;12.27;54.12
35655;BME280;21773;50.010;19.972;2023-04-02T13:39:50;98525.56;;;12.26;54.76
35655;BME280;21773;50.010;19.972;2023-04-02T13:42:53;98528.81;;;12.28;54.45
35655;BME280;21773;50.010;19.972;2023-04-02T13:45:58;98523.81;;;12.20;54.39
35655;BME280;21773;50.010;19.972;2023-04-02T13:49:03;98531.53;;;12.28;54.37
35655;BME280;21773;50.010;19.972;2023-04-02T13:52:12;98522.75;;;12.21;53.83
35655;BME280;21773;50.010;19.972;2023-04-02T13:55:19;98542.34;;;12.28;54.10
35655;BME280;21773;50.010;19.972;2023-04-02T13:58:24;98540.97;;;12.13;53.83
35655;BME280;21773;50.010;19.972;2023-04-02T14:01:27;98541.13;;;12.07;54.04
35655;BME280;21773;50.010;19.972;2023-04-02T14:04:35;98534.31;;;12.04;54.50
35655;BME280;21773;50.010;19.972;2023-04-02T14:07:51;98541.59;;;12.04;54.94
35655;BME280;21773;50.010;19.972;2023-04-02T14:11:15;98538.88;;;12.04;54.97
35655;BME280;21773;50.010;19.972;2023-04-02T14:14:34;98548.88;;;12.03;54.82
35655;BME280;21773;50.010;19.972;2023-04-02T14:17:51;98551.69;;;12.08;54.40
35655;BME280;21773;50.010;19.972;2023-04-02T14:21:05;98558.72;;;12.09;54.06
35655;BME280;21773;50.010;19.972;2023-04-02T14:24:17;98558.84;;;12.14;53.89
35655;BME280;21773;50.010;19.972;2023-04-02T14:27:32;98568.16;;;12.07;53.78
35655;BME280;21773;50.010;19.972;2023-04-02T14:30:48;98569.31;;;12.11;54.59
35655;BME280;21773;50.010;19.972;2023-04-02T14:34:01;98585.53;;;11.99;53.85
35655;BME280;21773;50.010;19.972;2023-04-02T14:37:14;98588.94;;;12.06;54.57
35655;BME280;21773;50.010;19.972;2023-04-02T14:40:25;98588.13;;;12.06;54.32
35655;BME280;21773;50.010;19.972;2023-04-02T14:43:35;98587.41;;;12.10;54.43
35655;BME280;21773;50.010;19.972;2023-04-02T14:46:41;98604.19;;;12.12;52.41
35655;BME280;21773;50.010;19.972;2023-04-02T14:49:48;98607.34;;;12.21;53.14
35655;BME280;21773;50.010;19.972;2023-04-02T14:52:59;98603.13;;;12.13;52.65
35655;BME280;21773;50.010;19.972;2023-04-02T14:56:06;98605.00;;;12.13;52.92
35655;BME280;21773;50.010;19.972;2023-04-02T14:59:24;98594.31;;;12.18;52.44
35655;BME280;21773;50.010;19.972;2023-04-02T15:02:38;98604.28;;;12.29;51.68
35655;BME280;21773;50.010;19.972;2023-04-02T15:05:45;98599.44;;;12.31;52.44
35655;BME280;21773;50.010;19.972;2023-04-02T15:08:53;98607.31;;;12.33;50.81
35655;BME280;21773;50.010;19.972;2023-04-02T15:12:18;98618.13;;;12.33;51.49
35655;BME280;21773;50.010;19.972;2023-04-02T15:15:33;98621.59;;;12.17;51.51
35655;BME280;21773;50.010;19.972;2023-04-02T15:18:41;98624.28;;;12.05;51.85
35655;BME280;21773;50.010;19.972;2023-04-02T15:22:03;98633.69;;;12.02;52.17
35655;BME280;21773;50.010;19.972;2023-04-02T15:25:17;98641.09;;;11.95;52.54
35655;BME280;21773;50.010;19.972;2023-04-02T15:28:26;98642.41;;;11.81;52.73
35655;BME280;21773;50.010;19.972;2023-04-02T15:31:32;98648.81;;;11.68;52.70
35655;BME280;21773;50.010;19.972;2023-04-02T15:34:39;98650.59;;;11.63;53.30
35655;BME280;21773;50.010;19.972;2023-04-02T15:37:54;98656.34;;;11.55;52.92
35655;BME280;21773;50.010;19.972;2023-04-02T15:41:03;98667.34;;;11.53;53.85
35655;BME280;21773;50.010;19.972;2023-04-02T15:44:13;98669.25;;;11.53;52.26
35655;BME280;21773;50.010;19.972;2023-04-02T15:47:26;98671.31;;;11.39;52.84
35655;BME280;21773;50.010;19.972;2023-04-02T15:50:45;98680.13;;;11.35;53.35
35655;BME280;21773;50.010;19.972;2023-04-02T15:53:58;98687.03;;;11.30;53.39
35655;BME280;21773;50.010;19.972;2023-04-02T15:57:14;98680.41;;;11.15;54.17
35655;BME280;21773;50.010;19.972;2023-04-02T16:00:22;98690.16;;;11.16;53.94
35655;BME280;21773;50.010;19.972;2023-04-02T16:03:53;98688.97;;;11.12;54.83
35655;BME280;21773;50.010;19.972;2023-04-02T16:10:36;98693.19;;;11.08;54.31
35655;BME280;21773;50.010;19.972;2023-04-02T16:13:43;98702.84;;;11.15;53.92
35655;BME280;21773;50.010;19.972;2023-04-02T16:16:49;98716.56;;;11.14;54.12
35655;BME280;21773;50.010;19.972;2023-04-02T16:20:04;98715.00;;;11.06;53.48
35655;BME280;21773;50.010;19.972;2023-04-02T16:23:13;98716.44;;;11.09;53.72
35655;BME280;21773;50.010;19.972;2023-04-02T16:26:29;98722.38;;;10.99;53.49
35655;BME280;21773;50.010;19.972;2023-04-02T16:29:53;98730.34;;;10.94;53.51
35655;BME280;21773;50.010;19.972;2023-04-02T16:33:11;98738.50;;;10.88;54.09
35655;BME280;21773;50.010;19.972;2023-04-02T16:36:30;98736.47;;;10.83;53.66
35655;BME280;21773;50.010;19.972;2023-04-02T16:39:38;98744.06;;;10.74;53.78
35655;BME280;21773;50.010;19.972;2023-04-02T16:42:47;98742.63;;;10.72;53.78
35655;BME280;21773;50.010;19.972;2023-04-02T16:46:04;98751.53;;;10.72;54.33
35655;BME280;21773;50.010;19.972;2023-04-02T16:49:22;98747.44;;;10.70;54.70
35655;BME280;21773;50.010;19.972;2023-04-02T16:52:39;98756.31;;;10.70;54.71
35655;BME280;21773;50.010;19.972;2023-04-02T16:55:58;98762.53;;;10.71;53.85